Share

Axtell, KS

Brenner (KFNB) Elev 984 ft | 40.08 °N, 95.59 °W | Change Station

Current weather conditions updated 28 minutes ago

Clear
Clear
60 °F
Feels Like 60 °F
N
9
Wind Variable Wind from South
Sunrise 6:40 AM
Sunset 8:08 PM
Moon Waning Gibbous

Today is forecast to be nearly the same temperature as yesterday. Afternoon showers and thunderstorms.

Pressure 30.01 in
Visibility 10.0 miles
Clouds Clear
Dew Point 49 °F
Humidity 67%
Rainfall 0.00 in
Snow Depth Not available.
UV 1 out of 16
Pollen 10.50 out of 12
Air Quality Not available.
Flu Activity No Activity
METAR KFNB 201253Z AUTO 18008KT 10SM CLR 16/09 A3002 RMK AO2 SLP161 T01560094

More Conditions Fewer Conditions

Pressure 30.01 in
Visibility 10.0 miles
Clouds Clear
Dew Point 49 °F
Humidity 67%
Rainfall 0.00 in
Snow Depth Not available.
UV 1 out of 16
Pollen 10.50 out of 12
Air Quality Not available.
Flu Activity No Activity
METAR KFNB 201253Z AUTO 18008KT 10SM CLR 16/09 A3002 RMK AO2 SLP161 T01560094

More Conditions Fewer Conditions

10-Day Weather Forecast

Almanac

Astronomy

Apr. 20, 2014 Rise Set
Actual Time 6:40 AM CDT 8:08 PM CDT
Civil Twilight 6:11 AM CDT 8:36 PM CDT
Nautical Twilight 5:37 AM CDT 9:11 PM CDT
Astronomical Twilight 5:01 AM CDT 9:47 PM CDT
Moon 12:49 AM CDT 11:01 AM CDT
Length of Visible Light 14h 25m
Length of Day
13h 28m
Tomorrow will be 2m 26s longer.
Waning Gibbous, 70% of the Moon is Illuminated
Today
Waning Gibbous
Apr 22
Last Quarter
Apr 29
New
May 6
First Quarter
May 14
Full

Today's Extremes

State Highs State Lows

Community

  • Happy Easter
    Happy Easter
  • EARLY FOGGY MORNING
    EARLY FOGGY MORNING
  • Easter Greetings
    Easter Greetings
  • Sunny day at the coast-Cape Arago Lighthouse
    Sunny day at the coast-Cape Arago Lighthouse
  • Cherry Blossoms
    Cherry Blossoms

WunderPhotos

Upload Photos

1,703,205 photos uploaded!

Nearby

Snow Depth

Station Depth Elevation
No new snow has been reported.

Coastal Water Temperatures

Place Temperature
No Stations Reporting

Earthquake Activity

City Distance Mag. Time & Date
No recent earthquake activity has been reported nearby.
Minimum magnitude displayed is 2.5.

Nearby Weather Stations

Station Location Temp. Dew Point Humidity Wind Precip. Elev Updated Type
MesoWest AXTELL , Axtell, KS 55 °F - - North  at  - 0.00 in / hr 1337 ft 7:00 AM CDT MADIS
MesoWest CENTRALIA LAKE , Centralia, KS 59 °F 49 °F 71% South  at  13 mph 0.00 in / hr 1302 ft 7:00 AM CDT MADIS
MesoWest WINFRD , Frankfort, KS 57 °F - - North  at  - 0.00 in / hr 1174 ft 7:00 AM CDT MADIS
MesoWest LILLIS , Vermillion, KS 59 °F - - North  at  - 0.00 in / hr 1252 ft 7:00 AM CDT MADIS
MesoWest SABTHA , Sabetha, KS 58 °F - - North  at  - 0.00 in / hr 1312 ft 6:15 AM CDT MADIS

Show More Stations Show Fewer Stations

What do you think?

We're not finished. Please let us know what you like, what you don't like, and what you are still missing.